sensor_id;sensor_type;location;lat;lon;timestamp;P1;durP1;ratioP1;P2;durP2;ratioP2
74650;SDS011;63169;46.042;14.592;2022-09-09T00:03:37;28.23;;;14.43;;
74650;SDS011;63169;46.042;14.592;2022-09-09T00:06:21;25.38;;;13.35;;
74650;SDS011;63169;46.042;14.592;2022-09-09T00:11:36;22.85;;;12.27;;
74650;SDS011;63169;46.042;14.592;2022-09-09T00:17:12;22.52;;;13.02;;
74650;SDS011;63169;46.042;14.592;2022-09-09T00:19:49;25.00;;;12.40;;
74650;SDS011;63169;46.042;14.592;2022-09-09T00:22:23;19.25;;;11.10;;
74650;SDS011;63169;46.042;14.592;2022-09-09T00:24:51;19.50;;;11.27;;
74650;SDS011;63169;46.042;14.592;2022-09-09T00:30:12;20.10;;;11.63;;
74650;SDS011;63169;46.042;14.592;2022-09-09T00:32:37;23.17;;;11.85;;
74650;SDS011;63169;46.042;14.592;2022-09-09T00:35:04;18.95;;;10.93;;
74650;SDS011;63169;46.042;14.592;2022-09-09T00:37:41;19.77;;;10.10;;
74650;SDS011;63169;46.042;14.592;2022-09-09T00:55:03;14.98;;;8.00;;
74650;SDS011;63169;46.042;14.592;2022-09-09T00:57:32;13.93;;;8.68;;
74650;SDS011;63169;46.042;14.592;2022-09-09T01:00:19;14.93;;;8.65;;
74650;SDS011;63169;46.042;14.592;2022-09-09T01:10:51;14.70;;;7.78;;
74650;SDS011;63169;46.042;14.592;2022-09-09T01:13:27;12.50;;;7.72;;
74650;SDS011;63169;46.042;14.592;2022-09-09T01:15:57;12.00;;;7.07;;
74650;SDS011;63169;46.042;14.592;2022-09-09T01:18:35;13.23;;;9.73;;
74650;SDS011;63169;46.042;14.592;2022-09-09T01:21:13;14.20;;;7.90;;
74650;SDS011;63169;46.042;14.592;2022-09-09T01:26:54;14.70;;;8.48;;
74650;SDS011;63169;46.042;14.592;2022-09-09T01:29:22;14.88;;;7.82;;
74650;SDS011;63169;46.042;14.592;2022-09-09T01:35:01;14.70;;;8.27;;
74650;SDS011;63169;46.042;14.592;2022-09-09T01:37:27;14.63;;;8.73;;
74650;SDS011;63169;46.042;14.592;2022-09-09T01:39:52;16.05;;;10.35;;
74650;SDS011;63169;46.042;14.592;2022-09-09T01:42:18;17.30;;;9.50;;
74650;SDS011;63169;46.042;14.592;2022-09-09T01:44:44;18.70;;;9.52;;
74650;SDS011;63169;46.042;14.592;2022-09-09T01:47:09;14.57;;;8.98;;
74650;SDS011;63169;46.042;14.592;2022-09-09T01:49:34;16.75;;;9.70;;
74650;SDS011;63169;46.042;14.592;2022-09-09T01:52:00;17.27;;;9.20;;
74650;SDS011;63169;46.042;14.592;2022-09-09T01:54:26;18.23;;;9.50;;
74650;SDS011;63169;46.042;14.592;2022-09-09T01:59:53;17.63;;;11.48;;
74650;SDS011;63169;46.042;14.592;2022-09-09T02:05:35;19.45;;;10.27;;
74650;SDS011;63169;46.042;14.592;2022-09-09T02:13:27;17.00;;;12.20;;
74650;SDS011;63169;46.042;14.592;2022-09-09T02:18:30;17.20;;;10.10;;
74650;SDS011;63169;46.042;14.592;2022-09-09T02:21:00;17.83;;;9.77;;
74650;SDS011;63169;46.042;14.592;2022-09-09T02:23:27;16.85;;;10.27;;
74650;SDS011;63169;46.042;14.592;2022-09-09T02:25:53;20.23;;;10.40;;
74650;SDS011;63169;46.042;14.592;2022-09-09T02:28:20;15.02;;;8.70;;
74650;SDS011;63169;46.042;14.592;2022-09-09T02:30:47;17.75;;;11.27;;
74650;SDS011;63169;46.042;14.592;2022-09-09T02:33:18;18.10;;;9.93;;
74650;SDS011;63169;46.042;14.592;2022-09-09T02:35:44;16.67;;;12.63;;
74650;SDS011;63169;46.042;14.592;2022-09-09T02:38:10;17.58;;;10.40;;
74650;SDS011;63169;46.042;14.592;2022-09-09T02:40:37;16.42;;;9.35;;
74650;SDS011;63169;46.042;14.592;2022-09-09T02:43:03;16.70;;;8.77;;
74650;SDS011;63169;46.042;14.592;2022-09-09T02:45:31;13.13;;;7.90;;
74650;SDS011;63169;46.042;14.592;2022-09-09T02:48:14;17.23;;;9.15;;
74650;SDS011;63169;46.042;14.592;2022-09-09T02:54:10;12.20;;;6.95;;
74650;SDS011;63169;46.042;14.592;2022-09-09T02:56:43;13.77;;;8.93;;
74650;SDS011;63169;46.042;14.592;2022-09-09T02:59:12;16.70;;;8.48;;
74650;SDS011;63169;46.042;14.592;2022-09-09T03:01:38;17.67;;;9.25;;
74650;SDS011;63169;46.042;14.592;2022-09-09T03:04:05;15.88;;;8.52;;
74650;SDS011;63169;46.042;14.592;2022-09-09T03:06:30;14.18;;;8.10;;
74650;SDS011;63169;46.042;14.592;2022-09-09T03:08:56;16.33;;;11.75;;
74650;SDS011;63169;46.042;14.592;2022-09-09T03:11:25;16.50;;;9.18;;
74650;SDS011;63169;46.042;14.592;2022-09-09T03:13:52;14.20;;;8.52;;
74650;SDS011;63169;46.042;14.592;2022-09-09T03:16:17;16.88;;;8.18;;
74650;SDS011;63169;46.042;14.592;2022-09-09T03:18:43;14.95;;;8.80;;
74650;SDS011;63169;46.042;14.592;2022-09-09T03:21:10;14.35;;;8.13;;
74650;SDS011;63169;46.042;14.592;2022-09-09T03:23:36;15.27;;;7.85;;
74650;SDS011;63169;46.042;14.592;2022-09-09T03:26:01;11.75;;;6.55;;
74650;SDS011;63169;46.042;14.592;2022-09-09T03:28:27;12.73;;;7.43;;
74650;SDS011;63169;46.042;14.592;2022-09-09T03:31:03;10.68;;;6.22;;
74650;SDS011;63169;46.042;14.592;2022-09-09T03:33:29;10.57;;;6.32;;
74650;SDS011;63169;46.042;14.592;2022-09-09T03:35:55;13.73;;;6.93;;
74650;SDS011;63169;46.042;14.592;2022-09-09T03:38:22;11.95;;;8.63;;
74650;SDS011;63169;46.042;14.592;2022-09-09T03:40:52;10.73;;;6.28;;
74650;SDS011;63169;46.042;14.592;2022-09-09T03:43:24;9.80;;;5.70;;
74650;SDS011;63169;46.042;14.592;2022-09-09T03:45:49;11.65;;;6.72;;
74650;SDS011;63169;46.042;14.592;2022-09-09T03:48:15;12.68;;;7.10;;
74650;SDS011;63169;46.042;14.592;2022-09-09T03:50:48;13.93;;;6.82;;
74650;SDS011;63169;46.042;14.592;2022-09-09T03:53:15;13.00;;;6.18;;
74650;SDS011;63169;46.042;14.592;2022-09-09T03:55:48;10.82;;;6.30;;
74650;SDS011;63169;46.042;14.592;2022-09-09T03:58:17;11.38;;;6.65;;
74650;SDS011;63169;46.042;14.592;2022-09-09T04:00:59;11.05;;;6.25;;
74650;SDS011;63169;46.042;14.592;2022-09-09T04:03:24;12.23;;;6.65;;
74650;SDS011;63169;46.042;14.592;2022-09-09T04:05:53;12.93;;;6.13;;
74650;SDS011;63169;46.042;14.592;2022-09-09T04:08:20;13.02;;;6.72;;
74650;SDS011;63169;46.042;14.592;2022-09-09T04:10:49;10.57;;;5.90;;
74650;SDS011;63169;46.042;14.592;2022-09-09T04:13:15;11.07;;;6.88;;
74650;SDS011;63169;46.042;14.592;2022-09-09T04:15:42;12.40;;;5.75;;
74650;SDS011;63169;46.042;14.592;2022-09-09T04:18:18;12.27;;;7.30;;
74650;SDS011;63169;46.042;14.592;2022-09-09T04:23:13;15.40;;;7.65;;
74650;SDS011;63169;46.042;14.592;2022-09-09T04:25:43;12.23;;;8.65;;
74650;SDS011;63169;46.042;14.592;2022-09-09T04:28:09;12.75;;;6.82;;
74650;SDS011;63169;46.042;14.592;2022-09-09T04:30:35;13.98;;;6.20;;
74650;SDS011;63169;46.042;14.592;2022-09-09T04:33:00;12.45;;;6.55;;
74650;SDS011;63169;46.042;14.592;2022-09-09T04:35:26;12.32;;;6.85;;
74650;SDS011;63169;46.042;14.592;2022-09-09T04:37:52;15.50;;;7.28;;
74650;SDS011;63169;46.042;14.592;2022-09-09T04:40:17;11.07;;;6.88;;
74650;SDS011;63169;46.042;14.592;2022-09-09T04:42:42;11.57;;;6.55;;
74650;SDS011;63169;46.042;14.592;2022-09-09T04:45:09;12.77;;;6.63;;
74650;SDS011;63169;46.042;14.592;2022-09-09T04:47:36;13.90;;;6.65;;
74650;SDS011;63169;46.042;14.592;2022-09-09T04:50:01;13.40;;;7.10;;
74650;SDS011;63169;46.042;14.592;2022-09-09T04:52:27;11.82;;;6.85;;
74650;SDS011;63169;46.042;14.592;2022-09-09T04:54:53;12.15;;;7.57;;
74650;SDS011;63169;46.042;14.592;2022-09-09T04:57:19;13.13;;;7.25;;
74650;SDS011;63169;46.042;14.592;2022-09-09T04:59:44;12.70;;;6.43;;
74650;SDS011;63169;46.042;14.592;2022-09-09T05:02:10;12.43;;;8.10;;
74650;SDS011;63169;46.042;14.592;2022-09-09T05:04:36;13.35;;;7.38;;
74650;SDS011;63169;46.042;14.592;2022-09-09T05:07:01;11.60;;;6.57;;
74650;SDS011;63169;46.042;14.592;2022-09-09T05:09:27;13.75;;;6.70;;
74650;SDS011;63169;46.042;14.592;2022-09-09T05:11:52;15.02;;;7.82;;
74650;SDS011;63169;46.042;14.592;2022-09-09T05:14:18;12.63;;;6.20;;
74650;SDS011;63169;46.042;14.592;2022-09-09T05:16:46;13.40;;;6.78;;
74650;SDS011;63169;46.042;14.592;2022-09-09T05:19:12;12.57;;;6.45;;
74650;SDS011;63169;46.042;14.592;2022-09-09T05:21:37;12.07;;;6.78;;
74650;SDS011;63169;46.042;14.592;2022-09-09T05:24:03;13.27;;;6.70;;
74650;SDS011;63169;46.042;14.592;2022-09-09T05:26:28;10.43;;;6.13;;
74650;SDS011;63169;46.042;14.592;2022-09-09T05:28:54;12.38;;;6.93;;
74650;SDS011;63169;46.042;14.592;2022-09-09T05:31:20;10.45;;;6.30;;
74650;SDS011;63169;46.042;14.592;2022-09-09T05:33:46;13.10;;;7.78;;
74650;SDS011;63169;46.042;14.592;2022-09-09T05:36:14;14.40;;;7.53;;
74650;SDS011;63169;46.042;14.592;2022-09-09T05:38:40;11.65;;;7.80;;
74650;SDS011;63169;46.042;14.592;2022-09-09T05:41:06;10.90;;;6.35;;
74650;SDS011;63169;46.042;14.592;2022-09-09T05:46:06;10.23;;;5.60;;
74650;SDS011;63169;46.042;14.592;2022-09-09T05:48:40;11.45;;;5.20;;
74650;SDS011;63169;46.042;14.592;2022-09-09T05:51:07;8.80;;;4.43;;
74650;SDS011;63169;46.042;14.592;2022-09-09T05:53:34;8.65;;;5.50;;
74650;SDS011;63169;46.042;14.592;2022-09-09T05:56:00;9.60;;;5.15;;
74650;SDS011;63169;46.042;14.592;2022-09-09T05:58:36;12.32;;;6.85;;
74650;SDS011;63169;46.042;14.592;2022-09-09T06:01:08;14.48;;;7.47;;
74650;SDS011;63169;46.042;14.592;2022-09-09T06:03:35;15.55;;;8.77;;
74650;SDS011;63169;46.042;14.592;2022-09-09T06:06:02;15.50;;;9.80;;
74650;SDS011;63169;46.042;14.592;2022-09-09T06:08:30;14.15;;;8.70;;
74650;SDS011;63169;46.042;14.592;2022-09-09T06:11:09;11.98;;;7.07;;
74650;SDS011;63169;46.042;14.592;2022-09-09T06:13:37;13.10;;;6.53;;
74650;SDS011;63169;46.042;14.592;2022-09-09T06:16:04;15.68;;;7.15;;
74650;SDS011;63169;46.042;14.592;2022-09-09T06:18:30;15.13;;;8.93;;
74650;SDS011;63169;46.042;14.592;2022-09-09T06:20:56;12.95;;;7.43;;
74650;SDS011;63169;46.042;14.592;2022-09-09T06:23:25;13.75;;;7.18;;
74650;SDS011;63169;46.042;14.592;2022-09-09T06:28:17;10.98;;;5.93;;
74650;SDS011;63169;46.042;14.592;2022-09-09T06:30:44;9.75;;;5.47;;
74650;SDS011;63169;46.042;14.592;2022-09-09T06:33:09;9.50;;;4.00;;
74650;SDS011;63169;46.042;14.592;2022-09-09T06:35:35;8.15;;;4.63;;
74650;SDS011;63169;46.042;14.592;2022-09-09T06:38:00;6.45;;;3.25;;
74650;SDS011;63169;46.042;14.592;2022-09-09T06:40:26;7.85;;;4.40;;
74650;SDS011;63169;46.042;14.592;2022-09-09T06:42:51;8.77;;;4.03;;
74650;SDS011;63169;46.042;14.592;2022-09-09T06:45:16;10.10;;;4.45;;
74650;SDS011;63169;46.042;14.592;2022-09-09T06:47:42;9.20;;;4.82;;
74650;SDS011;63169;46.042;14.592;2022-09-09T06:50:08;14.55;;;8.43;;
74650;SDS011;63169;46.042;14.592;2022-09-09T06:52:35;9.63;;;4.18;;
74650;SDS011;63169;46.042;14.592;2022-09-09T06:55:00;6.63;;;3.60;;
74650;SDS011;63169;46.042;14.592;2022-09-09T06:57:26;6.90;;;4.03;;
74650;SDS011;63169;46.042;14.592;2022-09-09T06:59:51;14.65;;;8.50;;
74650;SDS011;63169;46.042;14.592;2022-09-09T07:02:17;13.00;;;7.43;;
74650;SDS011;63169;46.042;14.592;2022-09-09T07:04:42;6.00;;;3.42;;
74650;SDS011;63169;46.042;14.592;2022-09-09T07:07:08;9.02;;;4.88;;
74650;SDS011;63169;46.042;14.592;2022-09-09T07:09:34;5.55;;;2.88;;
74650;SDS011;63169;46.042;14.592;2022-09-09T07:12:00;8.35;;;4.28;;
74650;SDS011;63169;46.042;14.592;2022-09-09T07:14:26;7.03;;;3.28;;
74650;SDS011;63169;46.042;14.592;2022-09-09T07:16:52;5.85;;;2.45;;
74650;SDS011;63169;46.042;14.592;2022-09-09T07:21:42;4.47;;;1.83;;
74650;SDS011;63169;46.042;14.592;2022-09-09T07:24:08;5.07;;;2.22;;
74650;SDS011;63169;46.042;14.592;2022-09-09T07:26:35;6.40;;;2.50;;
74650;SDS011;63169;46.042;14.592;2022-09-09T07:29:02;8.07;;;3.03;;
74650;SDS011;63169;46.042;14.592;2022-09-09T07:31:31;5.78;;;2.30;;
74650;SDS011;63169;46.042;14.592;2022-09-09T07:33:58;3.60;;;2.25;;
74650;SDS011;63169;46.042;14.592;2022-09-09T07:36:29;4.97;;;2.53;;
74650;SDS011;63169;46.042;14.592;2022-09-09T07:38:57;4.38;;;2.28;;
74650;SDS011;63169;46.042;14.592;2022-09-09T07:41:24;4.80;;;2.47;;
74650;SDS011;63169;46.042;14.592;2022-09-09T07:43:52;5.05;;;2.22;;
74650;SDS011;63169;46.042;14.592;2022-09-09T07:46:22;4.97;;;2.42;;
74650;SDS011;63169;46.042;14.592;2022-09-09T07:48:49;5.35;;;2.72;;
74650;SDS011;63169;46.042;14.592;2022-09-09T07:51:17;6.35;;;3.25;;
74650;SDS011;63169;46.042;14.592;2022-09-09T07:53:44;5.43;;;2.25;;
74650;SDS011;63169;46.042;14.592;2022-09-09T07:56:12;5.10;;;2.70;;
74650;SDS011;63169;46.042;14.592;2022-09-09T07:58:39;6.25;;;1.92;;
74650;SDS011;63169;46.042;14.592;2022-09-09T08:01:12;5.18;;;2.10;;
74650;SDS011;63169;46.042;14.592;2022-09-09T08:03:39;4.93;;;2.38;;
74650;SDS011;63169;46.042;14.592;2022-09-09T08:08:32;5.03;;;2.40;;
74650;SDS011;63169;46.042;14.592;2022-09-09T08:11:02;5.22;;;1.77;;
74650;SDS011;63169;46.042;14.592;2022-09-09T08:13:32;3.47;;;1.20;;
74650;SDS011;63169;46.042;14.592;2022-09-09T08:16:08;5.07;;;1.27;;
74650;SDS011;63169;46.042;14.592;2022-09-09T08:18:36;2.70;;;1.05;;
74650;SDS011;63169;46.042;14.592;2022-09-09T08:21:13;4.03;;;1.73;;
74650;SDS011;63169;46.042;14.592;2022-09-09T08:23:41;3.60;;;1.30;;
74650;SDS011;63169;46.042;14.592;2022-09-09T08:26:11;3.17;;;0.93;;
74650;SDS011;63169;46.042;14.592;2022-09-09T08:28:38;4.47;;;1.45;;
74650;SDS011;63169;46.042;14.592;2022-09-09T08:31:09;7.05;;;2.28;;
74650;SDS011;63169;46.042;14.592;2022-09-09T08:33:36;4.03;;;1.63;;
74650;SDS011;63169;46.042;14.592;2022-09-09T08:36:03;8.27;;;2.10;;
74650;SDS011;63169;46.042;14.592;2022-09-09T08:38:29;3.25;;;1.40;;
74650;SDS011;63169;46.042;14.592;2022-09-09T08:51:59;3.97;;;0.98;;
74650;SDS011;63169;46.042;14.592;2022-09-09T08:56:58;4.85;;;1.33;;
74650;SDS011;63169;46.042;14.592;2022-09-09T09:01:50;4.60;;;1.20;;
74650;SDS011;63169;46.042;14.592;2022-09-09T09:09:59;4.45;;;1.17;;
74650;SDS011;63169;46.042;14.592;2022-09-09T09:12:30;3.97;;;1.33;;
74650;SDS011;63169;46.042;14.592;2022-09-09T09:15:00;4.05;;;3.33;;
74650;SDS011;63169;46.042;14.592;2022-09-09T09:19:52;4.32;;;1.35;;
74650;SDS011;63169;46.042;14.592;2022-09-09T09:27:40;2.05;;;0.60;;
74650;SDS011;63169;46.042;14.592;2022-09-09T09:35:20;3.13;;;0.95;;
74650;SDS011;63169;46.042;14.592;2022-09-09T09:40:15;2.53;;;0.75;;
74650;SDS011;63169;46.042;14.592;2022-09-09T09:42:59;3.00;;;0.50;;
74650;SDS011;63169;46.042;14.592;2022-09-09T09:45:29;1.70;;;0.57;;
74650;SDS011;63169;46.042;14.592;2022-09-09T09:48:03;2.05;;;0.50;;
74650;SDS011;63169;46.042;14.592;2022-09-09T09:50:30;1.55;;;0.40;;
74650;SDS011;63169;46.042;14.592;2022-09-09T09:52:57;3.47;;;3.15;;
74650;SDS011;63169;46.042;14.592;2022-09-09T09:55:30;3.90;;;2.88;;
74650;SDS011;63169;46.042;14.592;2022-09-09T09:58:04;4.43;;;1.02;;
74650;SDS011;63169;46.042;14.592;2022-09-09T10:00:30;3.20;;;0.73;;
74650;SDS011;63169;46.042;14.592;2022-09-09T10:05:30;1.67;;;0.50;;
74650;SDS011;63169;46.042;14.592;2022-09-09T10:08:04;1.77;;;0.57;;
74650;SDS011;63169;46.042;14.592;2022-09-09T10:10:42;3.35;;;0.68;;
74650;SDS011;63169;46.042;14.592;2022-09-09T10:16:38;4.10;;;0.50;;
74650;SDS011;63169;46.042;14.592;2022-09-09T10:19:13;2.33;;;0.95;;
74650;SDS011;63169;46.042;14.592;2022-09-09T10:21:44;7.53;;;1.55;;
74650;SDS011;63169;46.042;14.592;2022-09-09T10:24:24;7.90;;;1.10;;
74650;SDS011;63169;46.042;14.592;2022-09-09T10:27:05;3.75;;;0.70;;
74650;SDS011;63169;46.042;14.592;2022-09-09T10:57:35;5.85;;;2.03;;
74650;SDS011;63169;46.042;14.592;2022-09-09T11:00:13;9.00;;;2.47;;
74650;SDS011;63169;46.042;14.592;2022-09-09T11:03:03;5.50;;;1.00;;
74650;SDS011;63169;46.042;14.592;2022-09-09T11:05:30;3.38;;;1.15;;
74650;SDS011;63169;46.042;14.592;2022-09-09T11:08:20;1.90;;;0.60;;
74650;SDS011;63169;46.042;14.592;2022-09-09T11:10:49;4.50;;;0.65;;
74650;SDS011;63169;46.042;14.592;2022-09-09T11:19:00;2.90;;;1.48;;
74650;SDS011;63169;46.042;14.592;2022-09-09T11:21:30;3.88;;;1.23;;
74650;SDS011;63169;46.042;14.592;2022-09-09T11:24:11;7.32;;;5.20;;
74650;SDS011;63169;46.042;14.592;2022-09-09T11:26:45;27.85;;;7.10;;
74650;SDS011;63169;46.042;14.592;2022-09-09T11:29:37;7.65;;;2.45;;
74650;SDS011;63169;46.042;14.592;2022-09-09T11:40:58;13.80;;;4.82;;
74650;SDS011;63169;46.042;14.592;2022-09-09T11:43:27;6.25;;;2.72;;
74650;SDS011;63169;46.042;14.592;2022-09-09T11:45:56;5.13;;;1.85;;
74650;SDS011;63169;46.042;14.592;2022-09-09T11:53:34;6.97;;;3.47;;
74650;SDS011;63169;46.042;14.592;2022-09-09T11:58:27;5.95;;;4.05;;
74650;SDS011;63169;46.042;14.592;2022-09-09T12:00:53;6.53;;;2.20;;
74650;SDS011;63169;46.042;14.592;2022-09-09T12:03:34;5.22;;;2.15;;
74650;SDS011;63169;46.042;14.592;2022-09-09T12:06:11;5.05;;;1.88;;
74650;SDS011;63169;46.042;14.592;2022-09-09T12:08:43;4.97;;;1.80;;
74650;SDS011;63169;46.042;14.592;2022-09-09T12:11:10;5.80;;;2.35;;
74650;SDS011;63169;46.042;14.592;2022-09-09T12:13:36;6.85;;;2.60;;
74650;SDS011;63169;46.042;14.592;2022-09-09T12:16:02;6.50;;;3.42;;
74650;SDS011;63169;46.042;14.592;2022-09-09T12:18:37;6.00;;;3.20;;
74650;SDS011;63169;46.042;14.592;2022-09-09T12:21:14;5.47;;;4.47;;
74650;SDS011;63169;46.042;14.592;2022-09-09T12:24:08;4.85;;;2.28;;
74650;SDS011;63169;46.042;14.592;2022-09-09T12:26:49;7.53;;;3.42;;
74650;SDS011;63169;46.042;14.592;2022-09-09T12:31:58;5.18;;;2.30;;
74650;SDS011;63169;46.042;14.592;2022-09-09T12:39:58;4.85;;;2.47;;
74650;SDS011;63169;46.042;14.592;2022-09-09T12:42:25;4.90;;;2.45;;
74650;SDS011;63169;46.042;14.592;2022-09-09T12:44:57;4.43;;;2.35;;
74650;SDS011;63169;46.042;14.592;2022-09-09T12:50:10;5.70;;;3.35;;
74650;SDS011;63169;46.042;14.592;2022-09-09T12:52:41;8.38;;;4.22;;
74650;SDS011;63169;46.042;14.592;2022-09-09T12:55:07;4.93;;;2.85;;
74650;SDS011;63169;46.042;14.592;2022-09-09T13:00:21;6.35;;;3.28;;
74650;SDS011;63169;46.042;14.592;2022-09-09T13:02:52;4.07;;;1.38;;
74650;SDS011;63169;46.042;14.592;2022-09-09T13:05:20;3.13;;;1.25;;
74650;SDS011;63169;46.042;14.592;2022-09-09T13:07:49;4.25;;;2.38;;
74650;SDS011;63169;46.042;14.592;2022-09-09T13:10:16;3.90;;;2.03;;
74650;SDS011;63169;46.042;14.592;2022-09-09T13:12:51;4.47;;;1.40;;
74650;SDS011;63169;46.042;14.592;2022-09-09T13:15:21;3.45;;;1.65;;
74650;SDS011;63169;46.042;14.592;2022-09-09T13:17:52;4.78;;;1.95;;
74650;SDS011;63169;46.042;14.592;2022-09-09T13:20:20;2.67;;;1.33;;
74650;SDS011;63169;46.042;14.592;2022-09-09T13:22:46;2.30;;;1.45;;
74650;SDS011;63169;46.042;14.592;2022-09-09T13:25:28;3.55;;;1.45;;
74650;SDS011;63169;46.042;14.592;2022-09-09T13:27:58;3.53;;;1.23;;
74650;SDS011;63169;46.042;14.592;2022-09-09T13:33:02;3.53;;;1.00;;
74650;SDS011;63169;46.042;14.592;2022-09-09T13:35:29;3.05;;;1.35;;
74650;SDS011;63169;46.042;14.592;2022-09-09T13:37:55;3.97;;;1.50;;
74650;SDS011;63169;46.042;14.592;2022-09-09T13:42:47;3.97;;;2.00;;
74650;SDS011;63169;46.042;14.592;2022-09-09T13:45:17;3.60;;;2.22;;
74650;SDS011;63169;46.042;14.592;2022-09-09T13:47:45;4.22;;;1.90;;
74650;SDS011;63169;46.042;14.592;2022-09-09T13:50:18;4.55;;;1.98;;
74650;SDS011;63169;46.042;14.592;2022-09-09T13:52:54;4.15;;;3.38;;
74650;SDS011;63169;46.042;14.592;2022-09-09T13:55:23;4.13;;;3.80;;
74650;SDS011;63169;46.042;14.592;2022-09-09T13:57:54;3.33;;;1.42;;
74650;SDS011;63169;46.042;14.592;2022-09-09T14:00:21;3.67;;;1.80;;
74650;SDS011;63169;46.042;14.592;2022-09-09T14:02:47;3.25;;;1.65;;
74650;SDS011;63169;46.042;14.592;2022-09-09T14:05:13;3.35;;;1.60;;
74650;SDS011;63169;46.042;14.592;2022-09-09T14:07:40;4.30;;;1.38;;
74650;SDS011;63169;46.042;14.592;2022-09-09T14:10:07;5.45;;;2.35;;
74650;SDS011;63169;46.042;14.592;2022-09-09T14:12:33;3.67;;;1.88;;
74650;SDS011;63169;46.042;14.592;2022-09-09T14:14:58;4.03;;;3.67;;
74650;SDS011;63169;46.042;14.592;2022-09-09T14:17:24;3.15;;;1.63;;
74650;SDS011;63169;46.042;14.592;2022-09-09T14:19:52;7.30;;;2.72;;
74650;SDS011;63169;46.042;14.592;2022-09-09T14:22:17;12.00;;;3.20;;
74650;SDS011;63169;46.042;14.592;2022-09-09T14:24:43;8.27;;;3.90;;
74650;SDS011;63169;46.042;14.592;2022-09-09T14:27:11;3.03;;;1.40;;
74650;SDS011;63169;46.042;14.592;2022-09-09T14:29:36;2.80;;;1.20;;
74650;SDS011;63169;46.042;14.592;2022-09-09T14:32:02;3.22;;;2.60;;
74650;SDS011;63169;46.042;14.592;2022-09-09T14:36:52;4.23;;;2.07;;
74650;SDS011;63169;46.042;14.592;2022-09-09T14:39:18;2.97;;;1.23;;
74650;SDS011;63169;46.042;14.592;2022-09-09T14:44:08;3.85;;;1.23;;
74650;SDS011;63169;46.042;14.592;2022-09-09T14:46:35;53.53;;;7.47;;
74650;SDS011;63169;46.042;14.592;2022-09-09T14:49:00;7.38;;;1.30;;
74650;SDS011;63169;46.042;14.592;2022-09-09T14:53:57;5.82;;;2.00;;
74650;SDS011;63169;46.042;14.592;2022-09-09T14:56:27;3.40;;;1.70;;
74650;SDS011;63169;46.042;14.592;2022-09-09T14:58:54;5.68;;;1.92;;
74650;SDS011;63169;46.042;14.592;2022-09-09T15:01:21;3.72;;;1.83;;
74650;SDS011;63169;46.042;14.592;2022-09-09T15:06:17;4.13;;;1.73;;
74650;SDS011;63169;46.042;14.592;2022-09-09T15:08:43;6.90;;;1.50;;
74650;SDS011;63169;46.042;14.592;2022-09-09T15:11:09;3.33;;;1.13;;
74650;SDS011;63169;46.042;14.592;2022-09-09T15:13:36;2.72;;;1.33;;
74650;SDS011;63169;46.042;14.592;2022-09-09T15:16:04;4.50;;;2.05;;
74650;SDS011;63169;46.042;14.592;2022-09-09T15:18:31;2.88;;;1.33;;
74650;SDS011;63169;46.042;14.592;2022-09-09T15:20:58;3.88;;;1.45;;
74650;SDS011;63169;46.042;14.592;2022-09-09T15:23:24;3.17;;;1.25;;
74650;SDS011;63169;46.042;14.592;2022-09-09T15:25:53;7.70;;;1.58;;
74650;SDS011;63169;46.042;14.592;2022-09-09T15:28:20;3.55;;;1.60;;
74650;SDS011;63169;46.042;14.592;2022-09-09T15:30:52;10.18;;;2.20;;
74650;SDS011;63169;46.042;14.592;2022-09-09T15:33:18;4.40;;;1.67;;
74650;SDS011;63169;46.042;14.592;2022-09-09T15:35:44;6.00;;;1.70;;
74650;SDS011;63169;46.042;14.592;2022-09-09T15:38:10;3.55;;;2.10;;
74650;SDS011;63169;46.042;14.592;2022-09-09T15:40:37;5.07;;;1.60;;
74650;SDS011;63169;46.042;14.592;2022-09-09T15:43:04;3.53;;;1.83;;
74650;SDS011;63169;46.042;14.592;2022-09-09T15:45:30;4.95;;;3.22;;
74650;SDS011;63169;46.042;14.592;2022-09-09T15:47:57;4.40;;;1.60;;
74650;SDS011;63169;46.042;14.592;2022-09-09T15:50:22;5.35;;;2.05;;
74650;SDS011;63169;46.042;14.592;2022-09-09T15:55:13;7.67;;;2.43;;
74650;SDS011;63169;46.042;14.592;2022-09-09T15:57:38;5.47;;;1.65;;
74650;SDS011;63169;46.042;14.592;2022-09-09T16:00:05;5.80;;;2.20;;
74650;SDS011;63169;46.042;14.592;2022-09-09T16:02:32;4.93;;;2.65;;
74650;SDS011;63169;46.042;14.592;2022-09-09T16:04:58;4.88;;;2.92;;
74650;SDS011;63169;46.042;14.592;2022-09-09T16:07:23;4.63;;;2.05;;
74650;SDS011;63169;46.042;14.592;2022-09-09T16:09:48;3.78;;;1.75;;
74650;SDS011;63169;46.042;14.592;2022-09-09T16:12:16;7.15;;;2.72;;
74650;SDS011;63169;46.042;14.592;2022-09-09T16:14:42;8.70;;;5.38;;
74650;SDS011;63169;46.042;14.592;2022-09-09T16:17:07;3.92;;;2.08;;
74650;SDS011;63169;46.042;14.592;2022-09-09T16:19:33;4.97;;;2.13;;
74650;SDS011;63169;46.042;14.592;2022-09-09T16:21:59;7.68;;;3.88;;
74650;SDS011;63169;46.042;14.592;2022-09-09T16:24:25;7.45;;;4.65;;
74650;SDS011;63169;46.042;14.592;2022-09-09T16:29:17;5.00;;;1.73;;
74650;SDS011;63169;46.042;14.592;2022-09-09T16:31:43;8.93;;;1.77;;
74650;SDS011;63169;46.042;14.592;2022-09-09T16:34:10;5.00;;;1.92;;
74650;SDS011;63169;46.042;14.592;2022-09-09T16:36:36;5.88;;;2.22;;
74650;SDS011;63169;46.042;14.592;2022-09-09T16:39:05;6.28;;;3.05;;
74650;SDS011;63169;46.042;14.592;2022-09-09T16:41:32;7.00;;;3.50;;
74650;SDS011;63169;46.042;14.592;2022-09-09T16:43:59;4.30;;;1.30;;
74650;SDS011;63169;46.042;14.592;2022-09-09T16:46:25;6.15;;;1.75;;
74650;SDS011;63169;46.042;14.592;2022-09-09T16:48:52;5.22;;;2.10;;
74650;SDS011;63169;46.042;14.592;2022-09-09T16:51:20;8.93;;;2.50;;
74650;SDS011;63169;46.042;14.592;2022-09-09T16:53:50;3.92;;;1.20;;
74650;SDS011;63169;46.042;14.592;2022-09-09T16:56:17;5.65;;;2.45;;
74650;SDS011;63169;46.042;14.592;2022-09-09T16:58:48;6.90;;;4.10;;
74650;SDS011;63169;46.042;14.592;2022-09-09T17:01:15;5.55;;;4.18;;
74650;SDS011;63169;46.042;14.592;2022-09-09T17:06:10;4.53;;;1.55;;
74650;SDS011;63169;46.042;14.592;2022-09-09T17:08:36;5.32;;;1.70;;
74650;SDS011;63169;46.042;14.592;2022-09-09T17:11:03;6.75;;;2.53;;
74650;SDS011;63169;46.042;14.592;2022-09-09T17:13:35;8.27;;;3.00;;
74650;SDS011;63169;46.042;14.592;2022-09-09T17:18:28;4.97;;;2.38;;
74650;SDS011;63169;46.042;14.592;2022-09-09T17:23:19;6.03;;;1.93;;
74650;SDS011;63169;46.042;14.592;2022-09-09T17:25:44;6.40;;;2.88;;
74650;SDS011;63169;46.042;14.592;2022-09-09T17:30:36;5.67;;;2.53;;
74650;SDS011;63169;46.042;14.592;2022-09-09T17:33:02;5.80;;;2.20;;
74650;SDS011;63169;46.042;14.592;2022-09-09T17:35:28;4.53;;;2.65;;
74650;SDS011;63169;46.042;14.592;2022-09-09T17:37:54;5.93;;;2.90;;
74650;SDS011;63169;46.042;14.592;2022-09-09T17:42:46;4.43;;;2.25;;
74650;SDS011;63169;46.042;14.592;2022-09-09T17:45:12;4.15;;;2.22;;
74650;SDS011;63169;46.042;14.592;2022-09-09T17:47:38;3.42;;;2.22;;
74650;SDS011;63169;46.042;14.592;2022-09-09T17:50:05;4.47;;;2.72;;
74650;SDS011;63169;46.042;14.592;2022-09-09T17:52:31;6.78;;;4.55;;
74650;SDS011;63169;46.042;14.592;2022-09-09T17:54:57;5.95;;;3.13;;
74650;SDS011;63169;46.042;14.592;2022-09-09T17:57:23;6.57;;;2.55;;
74650;SDS011;63169;46.042;14.592;2022-09-09T17:59:48;5.75;;;5.15;;
74650;SDS011;63169;46.042;14.592;2022-09-09T18:02:14;4.95;;;3.05;;
74650;SDS011;63169;46.042;14.592;2022-09-09T18:04:39;6.13;;;3.28;;